Dyess Air Force Base
KDYS : now visible

Airfield :











YOU CAN JOIN US ON...

 
LOGIN :

Register | Disclaimer

   EN    FR    IT 

 









Legend :    VFR   Marginal VFR   IFR   Intensive IFR   Very Intensive IFR
Visi :
Ceiling :
>= 8 km
>= 3000ft
5 to 8 km
1000 to 3000 ft
1500m to 5 km
500 to 1000 ft
800 to 1500m
200 to 500 ft
< 800m
< 200 ft
Symbols :   Thunderstorms  Fog  Heavy snow  Heavy precipitations  Wind > 20 kt







- Airport Elevation : 1789 ft


KDYS - Dyess Air Force Base

CURRENT METAR :
  • 190856Z AUTO 17004KT 10SM CLR 27/16 A2993 RMK AO2 SLP075 T02700160 53006 PNO FZRANO $

EXPIRED METARs :
  • 190756Z AUTO 15008KT 10SM CLR 29/16 A2992 RMK AO2 SLP072 T02880157 PNO FZRANO VISNO RWY34 CHINO RWY34 $
  • 190656Z AUTO 15012KT 10SM CLR 30/15 A2991 RMK AO2 SLP068 T02950152 PNO FZRANO $

TAF TAF KDYS
Valid from the 19 at 06:00 until the 20 at 12:00 UTC


190600Z 1906/2012 16009KT 9999 FEW160 QNH2991INS
TEMPO 1914/1917 19015G25KT
BECMG 2000/2001 13010G15KT 9999 FEW075 QNH2990INS TX39/1922Z TN25/1912Z
No reported NOTAMs for that airfield.



MET'MAP, your aeronautical weather chart ! - Copyright ORBIFLY December 2007 - Disclaimer

ORBIFLY MET'MAP TEAM :

Programming & Development : Alexandra Zaïnal
Concept & Development : Baudouin d'Aumeries
Co-Development & Prog : Marc-Olivier Méhu
Technical & hardware support : Manuel Goepfert

Contact : metmap@orbifly.com




SOURCES & CREDITS :

   NOAA       Earth
Advisory